Weather History for KMJQ - February, 2014

Change the Weather History Date:

Friday, February 28, 2014

  Actual Average Record
Temperature  
Mean Temperature 8 °F -  
Max Temperature 21 °F 29 °F 44 °F (2003)
Min Temperature -4 °F 16 °F -4 °F (2014)
Degree Days  
Heating Degree Days 56    
Moisture  
Dew Point 2 °F    
Average Humidity 69    
Maximum Humidity 80    
Minimum Humidity 58    
Precipitation  
Precipitation 0.00 in - - ()
Sea Level Pressure  
Sea Level Pressure 29.90 in    
Wind  
Wind Speed 12 mph (SW)    
Max Wind Speed 28 mph    
Max Gust Speed 34 mph    
Visibility 8 miles    
Events Snow    
Averages and records for this station are not official NWS values.
T = Trace of Precipitation, MM = Missing Value Source: NWS Daily Summary

Daily Weather History Graph

Daily Weather History Graph

Search for Another Location

Airport or City:

Trip Planner

Search our weather history database for the weather conditions in past years. The results will help you decide how hot, cold, wet, or windy it might be!

Date:

Astronomy

Feb. 28, 2014 Rise Set
Actual Time 6:58 AM CST 6:07 PM CST
Civil Twilight 6:29 AM CST 6:36 PM CST
Nautical Twilight 5:56 AM CST 7:09 PM CST
Astronomical Twilight 5:22 AM CST 7:42 PM CST
Moon 6:13 AM CST (2/28) 5:46 PM CST (2/28)
Length of Visible Light 12h 06m
Length of Day
11h 09m
Waning Crescent, 1% of the Moon is Illuminated
Feb 28
Waning Crescent
Mar 1
New
Mar 8
First Quarter
Mar 16
Full
Mar 23
Last Quarter

Hourly Weather History & Observations

Time (CST) Temp. Windchill Dew Point Humidity Pressure Visibility Wind Dir Wind Speed Gust Speed Precip Events Conditions
12:13 AM -4.0 °F -20.2 °F -13.0 °F 65% 29.92 in 10.0 mi SE 9.2 mph - N/A   Clear
12:33 AM -4.0 °F -21.2 °F -14.8 °F 60% 29.91 in 10.0 mi SSE 10.4 mph - N/A   Clear
12:52 AM -4.0 °F -22.1 °F -14.8 °F 60% 29.91 in 10.0 mi SE 11.5 mph - N/A   Scattered Clouds
1:13 AM -4.0 °F -22.1 °F -13.0 °F 65% 29.91 in 10.0 mi SE 11.5 mph 17.3 mph N/A   Clear
1:33 AM -4.0 °F -23.0 °F -13.0 °F 65% 29.90 in 10.0 mi SE 12.7 mph - N/A   Mostly Cloudy
1:52 AM -4.0 °F -22.1 °F -13.0 °F 65% 29.90 in 10.0 mi SSE 11.5 mph - N/A   Overcast
2:13 AM -2.2 °F -18.9 °F -11.2 °F 66% 29.88 in 10.0 mi SSE 10.4 mph - N/A   Mostly Cloudy
2:33 AM -2.2 °F -18.0 °F -11.2 °F 66% 29.88 in 10.0 mi SSE 9.2 mph 17.3 mph N/A   Mostly Cloudy
2:52 AM -0.4 °F -17.6 °F -11.2 °F 60% 29.87 in 10.0 mi SSE 11.5 mph - N/A   Scattered Clouds
3:13 AM -0.4 °F -15.7 °F -9.4 °F 66% 29.86 in 10.0 mi SSE 9.2 mph - N/A   Mostly Cloudy
3:32 AM -0.4 °F -18.4 °F -9.4 °F 66% 29.84 in 10.0 mi SSE 12.7 mph - N/A   Overcast
3:53 AM 1.4 °F -16.9 °F -9.4 °F 61% 29.83 in 10.0 mi SSE 13.8 mph - N/A   Overcast
4:12 AM 1.4 °F -13.5 °F -7.6 °F 66% 29.84 in 10.0 mi SSE 9.2 mph - N/A   Overcast
4:33 AM 1.4 °F -16.9 °F -7.6 °F 66% 29.82 in 10.0 mi SSE 13.8 mph - N/A   Overcast
4:53 AM 1.4 °F -15.3 °F -7.6 °F 66% 29.82 in 10.0 mi SSE 11.5 mph - N/A   Overcast
5:12 AM 3.2 °F -13.9 °F -5.8 °F 66% 29.81 in 10.0 mi SSE 12.7 mph - N/A   Overcast
5:33 AM 3.2 °F -13.9 °F -5.8 °F 66% 29.80 in 10.0 mi SSE 12.7 mph - N/A   Overcast
5:53 AM 3.2 °F -15.3 °F -5.8 °F 66% 29.79 in 10.0 mi SSE 15.0 mph - N/A   Overcast
6:12 AM 3.2 °F -15.3 °F -5.8 °F 66% 29.77 in 10.0 mi SSE 15.0 mph - N/A   Overcast
6:33 AM 5.0 °F -14.2 °F -4.0 °F 66% 29.78 in 10.0 mi SSE 17.3 mph 23.0 mph N/A   Overcast
6:53 AM 5.0 °F -12.3 °F -4.0 °F 66% 29.78 in 10.0 mi SSE 13.8 mph - N/A   Overcast
7:12 AM 5.0 °F -12.3 °F -4.0 °F 66% 29.77 in 10.0 mi SSE 13.8 mph 19.6 mph N/A   Overcast
7:33 AM 5.0 °F -11.6 °F -4.0 °F 66% 29.77 in 10.0 mi SSE 12.7 mph - N/A   Scattered Clouds
7:53 AM 5.0 °F -10.0 °F -4.0 °F 66% 29.78 in 10.0 mi SSE 10.4 mph - N/A   Mostly Cloudy
8:12 AM 6.8 °F -7.8 °F -2.2 °F 67% 29.79 in 10.0 mi South 10.4 mph - N/A   Overcast
8:33 AM 8.6 °F -8.9 °F -0.4 °F 67% 29.80 in 10.0 mi South 16.1 mph - N/A   Overcast
8:53 AM 8.6 °F -8.3 °F -0.4 °F 67% 29.81 in 10.0 mi South 15.0 mph 18.4 mph N/A   Overcast
9:12 AM 8.6 °F -4.7 °F 1.4 °F 73% 29.82 in 10.0 mi South 9.2 mph - N/A   Overcast
9:33 AM 10.4 °F -2.4 °F 1.4 °F 67% 29.83 in 10.0 mi South 9.2 mph - N/A   Overcast
9:53 AM 12.2 °F -1.8 °F 3.2 °F 67% 29.83 in 10.0 mi South 11.5 mph - N/A   Overcast
10:12 AM 12.2 °F -1.8 °F 3.2 °F 67% 29.82 in 10.0 mi South 11.5 mph - N/A   Overcast
10:33 AM 14.0 °F -0.2 °F 3.2 °F 62% 29.82 in 10.0 mi South 12.7 mph - N/A   Overcast
10:53 AM 14.0 °F -0.8 °F 3.2 °F 62% 29.83 in 10.0 mi SSW 13.8 mph - N/A   Overcast
11:12 AM 14.0 °F 0.5 °F 5.0 °F 67% 29.83 in 10.0 mi SSW 11.5 mph - N/A   Overcast
11:33 AM 15.8 °F 3.4 °F 5.0 °F 62% 29.82 in 10.0 mi SSW 10.4 mph - N/A   Overcast
11:52 AM 17.6 °F 5.7 °F 5.0 °F 58% 29.83 in 10.0 mi SSW 10.4 mph - N/A   Overcast
12:13 PM 17.6 °F 6.4 °F 6.8 °F 63% 29.83 in 10.0 mi SW 9.2 mph - N/A   Overcast
12:33 PM 15.8 °F 3.4 °F 8.6 °F 73% 29.84 in 0.5 mi SW 10.4 mph - N/A Snow Snow
12:52 PM 15.8 °F 4.2 °F 10.4 °F 79% 29.84 in 0.5 mi SW 9.2 mph - N/A Snow Snow
1:13 PM 15.8 °F 4.2 °F 10.4 °F 79% 29.83 in 0.5 mi SW 9.2 mph - N/A Snow Light Snow
1:33 PM 17.6 °F 6.4 °F 10.4 °F 73% 29.83 in 1.2 mi WSW 9.2 mph - N/A Snow Light Snow
1:52 PM 17.6 °F 7.3 °F 12.2 °F 79% 29.84 in 0.5 mi WSW 8.1 mph - N/A Snow Snow
2:13 PM 17.6 °F 7.3 °F 12.2 °F 79% 29.85 in 0.5 mi West 8.1 mph - N/A Snow Snow
2:33 PM 19.4 °F 5.0 °F 14.0 °F 80% 29.86 in 0.5 mi West 16.1 mph 19.6 mph N/A Snow Snow
2:52 PM 19.4 °F 6.0 °F 12.2 °F 74% 29.87 in 0.8 mi WNW 13.8 mph - N/A Snow Light Snow
3:13 PM 19.4 °F 7.2 °F 12.2 °F 74% 29.88 in 0.8 mi WNW 11.5 mph - N/A Snow Light Snow
3:33 PM 17.6 °F 5.0 °F 12.2 °F 79% 29.88 in 0.5 mi WNW 11.5 mph - N/A Snow Snow
3:52 PM 19.4 °F 5.5 °F 14.0 °F 80% 29.89 in 0.8 mi NW 15.0 mph - N/A Snow Snow
4:13 PM 19.4 °F 6.6 °F 12.2 °F 74% 29.90 in 1.5 mi NW 12.7 mph - N/A Snow Light Snow
4:33 PM 19.4 °F 7.9 °F 12.2 °F 74% 29.91 in 7.0 mi WNW 10.4 mph - N/A   Overcast
4:52 PM 19.4 °F 6.6 °F 12.2 °F 74% 29.91 in 10.0 mi WNW 12.7 mph - N/A   Overcast
5:13 PM 19.4 °F 6.6 °F 12.2 °F 74% 29.92 in 10.0 mi NW 12.7 mph - N/A   Overcast
5:33 PM 21.2 °F 6.8 °F 14.0 °F 74% 29.93 in 10.0 mi NNW 17.3 mph - N/A   Overcast
5:52 PM 21.2 °F 5.6 °F 12.2 °F 68% 29.94 in 10.0 mi NNW 20.7 mph 28.8 mph N/A   Overcast
6:13 PM 19.4 °F 6.0 °F 12.2 °F 74% 29.95 in 10.0 mi NNW 13.8 mph 24.2 mph N/A   Overcast
6:33 PM 19.4 °F 6.0 °F 12.2 °F 74% 29.96 in 10.0 mi NNW 13.8 mph 23.0 mph N/A   Overcast
6:53 PM 19.4 °F 5.5 °F 12.2 °F 74% 29.97 in 10.0 mi NNW 15.0 mph 31.1 mph N/A   Overcast
7:13 PM 17.6 °F 1.3 °F 10.4 °F 73% 29.98 in 7.0 mi NNW 19.6 mph 29.9 mph N/A   Overcast
7:32 PM 17.6 °F 1.7 °F 10.4 °F 73% 29.99 in 10.0 mi NNW 18.4 mph 26.5 mph N/A   Overcast
7:53 PM 17.6 °F 5.0 °F 10.4 °F 73% 30.00 in 10.0 mi NNW 11.5 mph 24.2 mph N/A   Overcast
8:13 PM 15.8 °F 0.3 °F 10.4 °F 79% 30.01 in 7.0 mi NNW 16.1 mph 25.3 mph N/A   Overcast
8:32 PM 14.0 °F -1.4 °F 8.6 °F 79% 30.02 in 4.0 mi North 15.0 mph 26.5 mph N/A Snow Light Snow
8:53 PM 14.0 °F -2.5 °F 8.6 °F 79% 30.04 in 3.0 mi NNW 17.3 mph 24.2 mph N/A Snow Light Snow
9:13 PM 12.2 °F -5.3 °F 5.0 °F 73% 30.07 in 3.0 mi NNW 18.4 mph 28.8 mph N/A Snow Light Snow
9:32 PM 10.4 °F -7.2 °F 3.2 °F 73% 30.09 in 7.0 mi NNW 17.3 mph 28.8 mph N/A   Overcast
9:53 PM 10.4 °F -7.7 °F 1.4 °F 67% 30.10 in 7.0 mi NNW 18.4 mph 28.8 mph N/A   Mostly Cloudy
10:13 PM 10.4 °F -11.0 °F 1.4 °F 67% 30.12 in 5.0 mi NNW 27.6 mph 33.4 mph N/A   Haze
10:32 PM 8.6 °F -13.1 °F -0.4 °F 67% 30.13 in 5.0 mi NNW 26.5 mph 29.9 mph N/A   Haze
10:53 PM 8.6 °F -12.7 °F -0.4 °F 67% 30.15 in 5.0 mi NNW 25.3 mph 34.5 mph N/A   Haze
11:13 PM 8.6 °F -11.0 °F -0.4 °F 67% 30.13 in 10.0 mi NNW 20.7 mph 28.8 mph N/A   Overcast
11:32 PM 6.8 °F -13.4 °F -4.0 °F 61% 30.15 in 5.0 mi NNW 20.7 mph 32.2 mph N/A   Haze
11:53 PM 5.0 °F -13.0 °F -4.0 °F 66% 30.15 in 10.0 mi NNW 15.0 mph 23.0 mph N/A   Mostly Cloudy